sensor_id;sensor_type;location;lat;lon;timestamp;pressure;altitude;pressure_sealevel;temperature;humidity
32324;BME280;25666;44.350;9.222;2022-09-25T00:00:26;101245.44;;;15.07;100.00
32324;BME280;25666;44.350;9.222;2022-09-25T00:02:51;101254.69;;;15.11;100.00
32324;BME280;25666;44.350;9.222;2022-09-25T00:05:17;101259.97;;;15.12;100.00
32324;BME280;25666;44.350;9.222;2022-09-25T00:07:42;101260.31;;;15.11;100.00
32324;BME280;25666;44.350;9.222;2022-09-25T00:10:08;101265.06;;;15.07;100.00
32324;BME280;25666;44.350;9.222;2022-09-25T00:12:33;101269.47;;;15.08;100.00
32324;BME280;25666;44.350;9.222;2022-09-25T00:15:00;101255.94;;;15.13;100.00
32324;BME280;25666;44.350;9.222;2022-09-25T00:17:26;101250.28;;;15.10;100.00
32324;BME280;25666;44.350;9.222;2022-09-25T00:19:51;101253.97;;;15.14;100.00
32324;BME280;25666;44.350;9.222;2022-09-25T00:22:18;101247.53;;;15.13;100.00
32324;BME280;25666;44.350;9.222;2022-09-25T00:24:44;101251.91;;;15.11;100.00
32324;BME280;25666;44.350;9.222;2022-09-25T00:27:10;101255.59;;;15.15;100.00
32324;BME280;25666;44.350;9.222;2022-09-25T00:29:37;101255.22;;;15.16;100.00
32324;BME280;25666;44.350;9.222;2022-09-25T00:32:04;101250.34;;;15.13;100.00
32324;BME280;25666;44.350;9.222;2022-09-25T00:34:30;101258.47;;;15.18;100.00
32324;BME280;25666;44.350;9.222;2022-09-25T00:36:55;101259.97;;;15.12;100.00
32324;BME280;25666;44.350;9.222;2022-09-25T00:39:21;101255.00;;;15.06;100.00
32324;BME280;25666;44.350;9.222;2022-09-25T00:41:46;101238.03;;;14.98;100.00
32324;BME280;25666;44.350;9.222;2022-09-25T00:50:34;101233.09;;;15.11;100.00
32324;BME280;25666;44.350;9.222;2022-09-25T00:53:07;101217.00;;;15.08;100.00
32324;BME280;25666;44.350;9.222;2022-09-25T00:55:36;101214.94;;;15.05;100.00
32324;BME280;25666;44.350;9.222;2022-09-25T00:58:03;101217.25;;;14.99;100.00
32324;BME280;25666;44.350;9.222;2022-09-25T01:00:30;101207.41;;;14.90;100.00
32324;BME280;25666;44.350;9.222;2022-09-25T01:03:00;101191.78;;;14.89;100.00
32324;BME280;25666;44.350;9.222;2022-09-25T01:05:32;101182.94;;;14.87;100.00
32324;BME280;25666;44.350;9.222;2022-09-25T01:08:00;101185.66;;;14.83;100.00
32324;BME280;25666;44.350;9.222;2022-09-25T01:10:27;101175.09;;;14.77;100.00
32324;BME280;25666;44.350;9.222;2022-09-25T01:12:54;101165.59;;;14.81;100.00
32324;BME280;25666;44.350;9.222;2022-09-25T01:15:24;101156.91;;;14.86;100.00
32324;BME280;25666;44.350;9.222;2022-09-25T01:18:05;101157.31;;;14.88;100.00
32324;BME280;25666;44.350;9.222;2022-09-25T01:34:13;101168.03;;;14.83;100.00
32324;BME280;25666;44.350;9.222;2022-09-25T01:36:52;101169.34;;;14.89;100.00
32324;BME280;25666;44.350;9.222;2022-09-25T01:39:27;101164.06;;;14.84;100.00
32324;BME280;25666;44.350;9.222;2022-09-25T01:42:12;101170.41;;;14.81;100.00
32324;BME280;25666;44.350;9.222;2022-09-25T01:44:45;101156.66;;;14.76;100.00
32324;BME280;25666;44.350;9.222;2022-09-25T01:47:19;101151.06;;;14.76;100.00
32324;BME280;25666;44.350;9.222;2022-09-25T01:49:50;101141.31;;;14.70;100.00
32324;BME280;25666;44.350;9.222;2022-09-25T01:52:22;101142.88;;;14.67;100.00
32324;BME280;25666;44.350;9.222;2022-09-25T01:54:54;101152.41;;;14.63;100.00
32324;BME280;25666;44.350;9.222;2022-09-25T01:57:32;101162.41;;;14.64;100.00
32324;BME280;25666;44.350;9.222;2022-09-25T02:02:41;101158.19;;;14.54;100.00
32324;BME280;25666;44.350;9.222;2022-09-25T02:05:33;101163.66;;;14.47;100.00
32324;BME280;25666;44.350;9.222;2022-09-25T02:08:06;101165.72;;;14.50;100.00
32324;BME280;25666;44.350;9.222;2022-09-25T02:10:36;101156.06;;;14.47;100.00
32324;BME280;25666;44.350;9.222;2022-09-25T02:13:13;101158.19;;;14.54;100.00
32324;BME280;25666;44.350;9.222;2022-09-25T02:15:48;101167.41;;;14.55;100.00
32324;BME280;25666;44.350;9.222;2022-09-25T02:18:18;101173.59;;;14.44;100.00
32324;BME280;25666;44.350;9.222;2022-09-25T02:21:14;101171.38;;;14.34;100.00
32324;BME280;25666;44.350;9.222;2022-09-25T02:23:48;101181.13;;;14.40;100.00
32324;BME280;25666;44.350;9.222;2022-09-25T02:26:32;101187.47;;;14.37;100.00
32324;BME280;25666;44.350;9.222;2022-09-25T02:28:59;101195.66;;;14.30;100.00
32324;BME280;25666;44.350;9.222;2022-09-25T02:31:28;101197.03;;;14.36;100.00
32324;BME280;25666;44.350;9.222;2022-09-25T02:34:00;101207.84;;;14.38;100.00
32324;BME280;25666;44.350;9.222;2022-09-25T02:36:26;101213.19;;;14.43;100.00
32324;BME280;25666;44.350;9.222;2022-09-25T02:38:52;101217.16;;;14.42;100.00
32324;BME280;25666;44.350;9.222;2022-09-25T02:44:32;101193.66;;;14.46;100.00
32324;BME280;25666;44.350;9.222;2022-09-25T02:47:07;101199.53;;;14.41;100.00
32324;BME280;25666;44.350;9.222;2022-09-25T02:49:45;101200.72;;;14.40;100.00
32324;BME280;25666;44.350;9.222;2022-09-25T02:52:18;101192.75;;;14.42;100.00
32324;BME280;25666;44.350;9.222;2022-09-25T02:57:33;101195.72;;;14.50;100.00
32324;BME280;25666;44.350;9.222;2022-09-25T03:00:04;101198.22;;;14.55;100.00
32324;BME280;25666;44.350;9.222;2022-09-25T03:02:32;101198.34;;;14.42;100.00
32324;BME280;25666;44.350;9.222;2022-09-25T03:04:59;101198.78;;;14.44;100.00
32324;BME280;25666;44.350;9.222;2022-09-25T03:07:26;101195.78;;;14.34;100.00
32324;BME280;25666;44.350;9.222;2022-09-25T03:09:53;101191.50;;;14.24;100.00
32324;BME280;25666;44.350;9.222;2022-09-25T03:12:19;101194.66;;;14.23;100.00
32324;BME280;25666;44.350;9.222;2022-09-25T03:14:45;101195.13;;;14.25;100.00
32324;BME280;25666;44.350;9.222;2022-09-25T03:17:11;101198.66;;;14.22;100.00
32324;BME280;25666;44.350;9.222;2022-09-25T03:19:37;101190.41;;;14.29;100.00
32324;BME280;25666;44.350;9.222;2022-09-25T03:22:03;101180.22;;;14.36;100.00
32324;BME280;25666;44.350;9.222;2022-09-25T03:24:29;101168.72;;;14.41;100.00
32324;BME280;25666;44.350;9.222;2022-09-25T03:26:55;101171.44;;;14.38;100.00
32324;BME280;25666;44.350;9.222;2022-09-25T03:29:21;101161.88;;;14.39;100.00
32324;BME280;25666;44.350;9.222;2022-09-25T03:31:47;101163.28;;;14.48;100.00
32324;BME280;25666;44.350;9.222;2022-09-25T03:34:15;101148.47;;;14.48;100.00
32324;BME280;25666;44.350;9.222;2022-09-25T03:36:41;101148.19;;;14.53;100.00
32324;BME280;25666;44.350;9.222;2022-09-25T03:39:07;101146.63;;;14.56;100.00
32324;BME280;25666;44.350;9.222;2022-09-25T03:41:35;101144.44;;;14.65;100.00
32324;BME280;25666;44.350;9.222;2022-09-25T03:44:01;101152.09;;;14.68;100.00
32324;BME280;25666;44.350;9.222;2022-09-25T03:46:30;101145.09;;;14.58;100.00
32324;BME280;25666;44.350;9.222;2022-09-25T03:48:56;101147.38;;;14.53;100.00
32324;BME280;25666;44.350;9.222;2022-09-25T03:51:24;101149.19;;;14.45;100.00
32324;BME280;25666;44.350;9.222;2022-09-25T03:53:50;101151.91;;;14.41;100.00
32324;BME280;25666;44.350;9.222;2022-09-25T03:56:18;101149.41;;;14.36;100.00
32324;BME280;25666;44.350;9.222;2022-09-25T03:58:45;101139.47;;;14.39;100.00
32324;BME280;25666;44.350;9.222;2022-09-25T04:01:12;101132.97;;;14.35;100.00
32324;BME280;25666;44.350;9.222;2022-09-25T04:03:37;101126.56;;;14.34;100.00
32324;BME280;25666;44.350;9.222;2022-09-25T04:06:04;101132.97;;;14.35;100.00
32324;BME280;25666;44.350;9.222;2022-09-25T04:08:32;101134.28;;;14.41;100.00
32324;BME280;25666;44.350;9.222;2022-09-25T04:10:58;101126.78;;;14.45;100.00
32324;BME280;25666;44.350;9.222;2022-09-25T04:13:26;101124.38;;;14.43;100.00
32324;BME280;25666;44.350;9.222;2022-09-25T04:15:54;101123.47;;;14.39;100.00
32324;BME280;25666;44.350;9.222;2022-09-25T04:18:23;101131.66;;;14.48;100.00
32324;BME280;25666;44.350;9.222;2022-09-25T04:20:49;101129.97;;;14.43;100.00
32324;BME280;25666;44.350;9.222;2022-09-25T04:23:16;101132.53;;;14.33;100.00
32324;BME280;25666;44.350;9.222;2022-09-25T04:25:41;101131.38;;;14.34;100.00
32324;BME280;25666;44.350;9.222;2022-09-25T04:28:08;101142.88;;;14.32;100.00
32324;BME280;25666;44.350;9.222;2022-09-25T04:30:34;101154.38;;;14.27;100.00
32324;BME280;25666;44.350;9.222;2022-09-25T04:33:00;101149.59;;;14.28;100.00
32324;BME280;25666;44.350;9.222;2022-09-25T04:35:44;101154.47;;;14.31;100.00
32324;BME280;25666;44.350;9.222;2022-09-25T04:38:10;101157.44;;;14.38;100.00
32324;BME280;25666;44.350;9.222;2022-09-25T04:40:36;101145.50;;;14.41;100.00
32324;BME280;25666;44.350;9.222;2022-09-25T04:43:04;101141.53;;;14.42;100.00
32324;BME280;25666;44.350;9.222;2022-09-25T04:45:32;101135.66;;;14.47;100.00
32324;BME280;25666;44.350;9.222;2022-09-25T04:47:59;101138.47;;;14.47;100.00
32324;BME280;25666;44.350;9.222;2022-09-25T04:50:26;101132.78;;;14.43;100.00
32324;BME280;25666;44.350;9.222;2022-09-25T04:52:56;101126.78;;;14.45;100.00
32324;BME280;25666;44.350;9.222;2022-09-25T04:55:22;101121.66;;;14.47;100.00
32324;BME280;25666;44.350;9.222;2022-09-25T04:57:53;101117.44;;;14.37;100.00
32324;BME280;25666;44.350;9.222;2022-09-25T05:00:19;101108.16;;;14.33;100.00
32324;BME280;25666;44.350;9.222;2022-09-25T05:02:45;101121.00;;;14.19;100.00
32324;BME280;25666;44.350;9.222;2022-09-25T05:05:11;101120.91;;;14.15;100.00
32324;BME280;25666;44.350;9.222;2022-09-25T05:07:38;101120.09;;;14.15;100.00
32324;BME280;25666;44.350;9.222;2022-09-25T05:10:07;101119.19;;;14.11;100.00
32324;BME280;25666;44.350;9.222;2022-09-25T05:12:33;101108.50;;;14.16;100.00
32324;BME280;25666;44.350;9.222;2022-09-25T05:14:59;101101.84;;;14.21;100.00
32324;BME280;25666;44.350;9.222;2022-09-25T05:17:24;101102.00;;;14.28;100.00
32324;BME280;25666;44.350;9.222;2022-09-25T05:19:50;101099.84;;;14.21;100.00
32324;BME280;25666;44.350;9.222;2022-09-25T05:22:15;101103.16;;;14.27;100.00
32324;BME280;25666;44.350;9.222;2022-09-25T05:24:41;101105.22;;;14.30;100.00
32324;BME280;25666;44.350;9.222;2022-09-25T05:27:06;101115.44;;;14.22;100.00
32324;BME280;25666;44.350;9.222;2022-09-25T05:29:32;101109.50;;;14.24;100.00
32324;BME280;25666;44.350;9.222;2022-09-25T05:31:59;101099.84;;;14.21;100.00
32324;BME280;25666;44.350;9.222;2022-09-25T05:34:25;101113.56;;;14.26;100.00
32324;BME280;25666;44.350;9.222;2022-09-25T05:36:50;101116.72;;;14.40;100.00
32324;BME280;25666;44.350;9.222;2022-09-25T05:39:16;101116.72;;;14.40;100.00
32324;BME280;25666;44.350;9.222;2022-09-25T05:41:42;101121.66;;;14.47;100.00
32324;BME280;25666;44.350;9.222;2022-09-25T05:44:07;101125.03;;;14.37;100.00
32324;BME280;25666;44.350;9.222;2022-09-25T05:46:38;101131.16;;;14.42;100.00
32324;BME280;25666;44.350;9.222;2022-09-25T05:49:04;101124.81;;;14.45;100.00
32324;BME280;25666;44.350;9.222;2022-09-25T05:51:31;101128.50;;;14.50;100.00
32324;BME280;25666;44.350;9.222;2022-09-25T05:53:57;101130.19;;;14.54;100.00
32324;BME280;25666;44.350;9.222;2022-09-25T05:56:22;101130.25;;;14.58;100.00
32324;BME280;25666;44.350;9.222;2022-09-25T05:58:51;101127.53;;;14.61;100.00
32324;BME280;25666;44.350;9.222;2022-09-25T06:01:18;101130.34;;;14.61;100.00
32324;BME280;25666;44.350;9.222;2022-09-25T06:03:44;101133.31;;;14.68;100.00
32324;BME280;25666;44.350;9.222;2022-09-25T06:06:09;101127.25;;;14.66;100.00
32324;BME280;25666;44.350;9.222;2022-09-25T06:08:35;101131.81;;;14.74;100.00
32324;BME280;25666;44.350;9.222;2022-09-25T06:11:01;101133.06;;;14.77;100.00
32324;BME280;25666;44.350;9.222;2022-09-25T06:13:28;101135.56;;;14.82;100.00
32324;BME280;25666;44.350;9.222;2022-09-25T06:15:56;101138.59;;;14.73;100.00
32324;BME280;25666;44.350;9.222;2022-09-25T06:18:23;101135.94;;;14.80;100.00
32324;BME280;25666;44.350;9.222;2022-09-25T06:20:49;101134.63;;;14.74;100.00
32324;BME280;25666;44.350;9.222;2022-09-25T06:23:16;101139.84;;;14.76;100.00
32324;BME280;25666;44.350;9.222;2022-09-25T06:25:42;101141.41;;;14.73;100.00
32324;BME280;25666;44.350;9.222;2022-09-25T06:28:09;101141.03;;;14.75;100.00
32324;BME280;25666;44.350;9.222;2022-09-25T06:30:35;101144.34;;;14.80;100.00
32324;BME280;25666;44.350;9.222;2022-09-25T06:33:12;101147.06;;;14.96;100.00
32324;BME280;25666;44.350;9.222;2022-09-25T06:35:42;101144.59;;;15.14;100.00
32324;BME280;25666;44.350;9.222;2022-09-25T06:38:09;101145.72;;;15.28;100.00
32324;BME280;25666;44.350;9.222;2022-09-25T06:40:35;101141.09;;;15.39;100.00
32324;BME280;25666;44.350;9.222;2022-09-25T06:43:03;101139.16;;;15.43;100.00
32324;BME280;25666;44.350;9.222;2022-09-25T06:45:31;101140.28;;;15.39;100.00
32324;BME280;25666;44.350;9.222;2022-09-25T06:48:02;101141.22;;;15.46;100.00
32324;BME280;25666;44.350;9.222;2022-09-25T06:50:33;101145.88;;;15.58;100.00
32324;BME280;25666;44.350;9.222;2022-09-25T06:53:00;101145.25;;;15.68;100.00
32324;BME280;25666;44.350;9.222;2022-09-25T06:55:26;101135.69;;;15.73;100.00
32324;BME280;25666;44.350;9.222;2022-09-25T06:57:52;101139.06;;;15.82;100.00
32324;BME280;25666;44.350;9.222;2022-09-25T07:00:17;101142.66;;;15.82;100.00
32324;BME280;25666;44.350;9.222;2022-09-25T07:02:43;101137.50;;;15.84;100.00
32324;BME280;25666;44.350;9.222;2022-09-25T07:05:27;101148.50;;;15.96;100.00
32324;BME280;25666;44.350;9.222;2022-09-25T07:07:53;101152.19;;;16.00;100.00
32324;BME280;25666;44.350;9.222;2022-09-25T07:10:20;101159.63;;;15.89;100.00
32324;BME280;25666;44.350;9.222;2022-09-25T07:12:49;101161.53;;;15.82;100.00
32324;BME280;25666;44.350;9.222;2022-09-25T07:15:15;101166.38;;;15.85;100.00
32324;BME280;25666;44.350;9.222;2022-09-25T07:17:42;101167.69;;;15.91;100.00
32324;BME280;25666;44.350;9.222;2022-09-25T07:20:08;101161.41;;;16.01;100.00
32324;BME280;25666;44.350;9.222;2022-09-25T07:22:37;101164.06;;;16.17;100.00
32324;BME280;25666;44.350;9.222;2022-09-25T07:25:03;101162.06;;;16.43;100.00
32324;BME280;25666;44.350;9.222;2022-09-25T07:27:29;101151.66;;;16.74;100.00
32324;BME280;25666;44.350;9.222;2022-09-25T07:29:55;101149.19;;;17.02;100.00
32324;BME280;25666;44.350;9.222;2022-09-25T07:32:21;101141.47;;;17.32;100.00
32324;BME280;25666;44.350;9.222;2022-09-25T07:34:46;101146.34;;;17.35;100.00
32324;BME280;25666;44.350;9.222;2022-09-25T07:37:18;101144.84;;;17.48;100.00
32324;BME280;25666;44.350;9.222;2022-09-25T07:39:44;101134.38;;;17.45;100.00
32324;BME280;25666;44.350;9.222;2022-09-25T07:42:09;101135.72;;;17.58;100.00
32324;BME280;25666;44.350;9.222;2022-09-25T07:44:35;101141.06;;;17.71;100.00
32324;BME280;25666;44.350;9.222;2022-09-25T07:47:01;101134.69;;;17.77;100.00
32324;BME280;25666;44.350;9.222;2022-09-25T07:49:28;101126.75;;;17.90;100.00
32324;BME280;25666;44.350;9.222;2022-09-25T07:51:54;101137.28;;;18.00;100.00
32324;BME280;25666;44.350;9.222;2022-09-25T07:54:19;101129.72;;;18.11;100.00
32324;BME280;25666;44.350;9.222;2022-09-25T07:56:45;101135.47;;;18.29;100.00
32324;BME280;25666;44.350;9.222;2022-09-25T07:59:11;101127.50;;;18.48;100.00
32324;BME280;25666;44.350;9.222;2022-09-25T08:01:36;101114.75;;;18.65;100.00
32324;BME280;25666;44.350;9.222;2022-09-25T08:04:01;101126.06;;;18.72;100.00
32324;BME280;25666;44.350;9.222;2022-09-25T08:06:27;101125.28;;;18.79;100.00
32324;BME280;25666;44.350;9.222;2022-09-25T08:08:52;101122.88;;;18.81;100.00
32324;BME280;25666;44.350;9.222;2022-09-25T08:11:18;101116.41;;;18.77;100.00
32324;BME280;25666;44.350;9.222;2022-09-25T08:13:44;101114.00;;;18.75;100.00
32324;BME280;25666;44.350;9.222;2022-09-25T08:16:15;101107.94;;;18.73;100.00
32324;BME280;25666;44.350;9.222;2022-09-25T08:18:43;101107.16;;;18.76;100.00
32324;BME280;25666;44.350;9.222;2022-09-25T08:21:11;101105.19;;;18.91;100.00
32324;BME280;25666;44.350;9.222;2022-09-25T08:23:42;101109.69;;;19.13;100.00
32324;BME280;25666;44.350;9.222;2022-09-25T08:26:08;101108.91;;;19.37;100.00
32324;BME280;25666;44.350;9.222;2022-09-25T08:28:34;101116.22;;;19.52;100.00
32324;BME280;25666;44.350;9.222;2022-09-25T08:31:00;101125.50;;;19.60;100.00
32324;BME280;25666;44.350;9.222;2022-09-25T08:33:31;101115.78;;;19.40;100.00
32324;BME280;25666;44.350;9.222;2022-09-25T08:36:01;101110.13;;;19.33;100.00
32324;BME280;25666;44.350;9.222;2022-09-25T08:38:27;101120.25;;;19.41;100.00
32324;BME280;25666;44.350;9.222;2022-09-25T08:42:01;101113.41;;;19.42;100.00
32324;BME280;25666;44.350;9.222;2022-09-25T08:47:14;101129.09;;;19.43;100.00
32324;BME280;25666;44.350;9.222;2022-09-25T08:50:05;101130.31;;;19.45;100.00
32324;BME280;25666;44.350;9.222;2022-09-25T08:52:34;101140.41;;;19.67;100.00
32324;BME280;25666;44.350;9.222;2022-09-25T08:54:59;101140.03;;;19.83;100.00
32324;BME280;25666;44.350;9.222;2022-09-25T08:57:35;101140.84;;;19.98;100.00
32324;BME280;25666;44.350;9.222;2022-09-25T09:00:22;101143.25;;;19.99;100.00
32324;BME280;25666;44.350;9.222;2022-09-25T09:02:56;101145.66;;;19.87;100.00
32324;BME280;25666;44.350;9.222;2022-09-25T09:05:29;101154.16;;;19.80;100.00
32324;BME280;25666;44.350;9.222;2022-09-25T09:08:16;101148.91;;;19.71;100.00
32324;BME280;25666;44.350;9.222;2022-09-25T09:10:44;101152.13;;;19.59;100.00
32324;BME280;25666;44.350;9.222;2022-09-25T09:13:24;101145.69;;;19.51;100.00
32324;BME280;25666;44.350;9.222;2022-09-25T09:18:27;101135.19;;;19.84;100.00
32324;BME280;25666;44.350;9.222;2022-09-25T09:20:57;101132.38;;;19.94;100.00
32324;BME280;25666;44.350;9.222;2022-09-25T09:23:31;101129.88;;;20.21;100.00
32324;BME280;25666;44.350;9.222;2022-09-25T09:34:38;101130.63;;;20.67;100.00
32324;BME280;25666;44.350;9.222;2022-09-25T09:37:14;101135.34;;;20.95;100.00
32324;BME280;25666;44.350;9.222;2022-09-25T09:42:45;101120.38;;;20.95;100.00
32324;BME280;25666;44.350;9.222;2022-09-25T09:48:13;101129.25;;;20.97;100.00
32324;BME280;25666;44.350;9.222;2022-09-25T09:51:05;101115.94;;;20.94;100.00
32324;BME280;25666;44.350;9.222;2022-09-25T09:53:48;101106.72;;;20.82;100.00
32324;BME280;25666;44.350;9.222;2022-09-25T09:56:24;101102.63;;;20.87;100.00
32324;BME280;25666;44.350;9.222;2022-09-25T09:58:56;101090.59;;;20.69;100.00
32324;BME280;25666;44.350;9.222;2022-09-25T10:01:25;101097.91;;;20.63;100.00
32324;BME280;25666;44.350;9.222;2022-09-25T10:04:19;101095.44;;;20.65;100.00
32324;BME280;25666;44.350;9.222;2022-09-25T10:07:13;101103.94;;;20.68;100.00
32324;BME280;25666;44.350;9.222;2022-09-25T10:09:41;101096.25;;;20.65;100.00
32324;BME280;25666;44.350;9.222;2022-09-25T10:14:41;101104.72;;;20.76;100.00
32324;BME280;25666;44.350;9.222;2022-09-25T10:17:09;101097.41;;;20.78;100.00
32324;BME280;25666;44.350;9.222;2022-09-25T10:19:56;101096.63;;;20.71;100.00
32324;BME280;25666;44.350;9.222;2022-09-25T10:22:35;101097.41;;;20.86;100.00
32324;BME280;25666;44.350;9.222;2022-09-25T10:25:01;101099.44;;;20.78;100.00
32324;BME280;25666;44.350;9.222;2022-09-25T10:32:26;101113.69;;;20.53;100.00
32324;BME280;25666;44.350;9.222;2022-09-25T10:34:52;101113.31;;;20.51;100.00
32324;BME280;25666;44.350;9.222;2022-09-25T10:37:19;101116.13;;;20.55;100.00
32324;BME280;25666;44.350;9.222;2022-09-25T10:40:00;101110.06;;;20.53;100.00
32324;BME280;25666;44.350;9.222;2022-09-25T10:42:38;101113.25;;;20.58;100.00
32324;BME280;25666;44.350;9.222;2022-09-25T10:45:31;101120.91;;;20.65;100.00
32324;BME280;25666;44.350;9.222;2022-09-25T10:47:57;101127.34;;;20.76;100.00
32324;BME280;25666;44.350;9.222;2022-09-25T10:50:41;101126.88;;;20.92;100.00
32324;BME280;25666;44.350;9.222;2022-09-25T10:53:24;101125.16;;;21.08;100.00
32324;BME280;25666;44.350;9.222;2022-09-25T10:56:07;101123.50;;;21.21;100.00
32324;BME280;25666;44.350;9.222;2022-09-25T10:58:42;101126.25;;;21.35;100.00
32324;BME280;25666;44.350;9.222;2022-09-25T11:01:10;101132.66;;;21.43;100.00
32324;BME280;25666;44.350;9.222;2022-09-25T11:03:48;101129.78;;;21.50;100.00
32324;BME280;25666;44.350;9.222;2022-09-25T11:06:23;101131.72;;;21.64;100.00
32324;BME280;25666;44.350;9.222;2022-09-25T11:09:07;101135.75;;;21.63;100.00
32324;BME280;25666;44.350;9.222;2022-09-25T11:11:33;101115.97;;;21.56;100.00
32324;BME280;25666;44.350;9.222;2022-09-25T11:14:02;101126.06;;;21.60;100.00
32324;BME280;25666;44.350;9.222;2022-09-25T11:19:44;101117.97;;;21.59;100.00
32324;BME280;25666;44.350;9.222;2022-09-25T11:22:23;101109.59;;;21.45;100.00
32324;BME280;25666;44.350;9.222;2022-09-25T11:25:12;101121.00;;;21.30;100.00
32324;BME280;25666;44.350;9.222;2022-09-25T11:27:46;101105.28;;;21.22;100.00
32324;BME280;25666;44.350;9.222;2022-09-25T11:30:17;101102.97;;;20.96;100.00
32324;BME280;25666;44.350;9.222;2022-09-25T11:33:12;101100.25;;;20.78;100.00
32324;BME280;25666;44.350;9.222;2022-09-25T11:35:51;101098.28;;;20.65;100.00
32324;BME280;25666;44.350;9.222;2022-09-25T11:38:39;101093.06;;;20.63;100.00
32324;BME280;25666;44.350;9.222;2022-09-25T11:49:31;101080.56;;;20.54;100.00
32324;BME280;25666;44.350;9.222;2022-09-25T11:54:43;101077.66;;;20.64;100.00
32324;BME280;25666;44.350;9.222;2022-09-25T11:57:27;101066.34;;;20.68;100.00
32324;BME280;25666;44.350;9.222;2022-09-25T12:00:12;101079.72;;;20.64;100.00
32324;BME280;25666;44.350;9.222;2022-09-25T12:08:55;101066.81;;;20.56;100.00
32324;BME280;25666;44.350;9.222;2022-09-25T12:11:33;101062.38;;;20.55;100.00
32324;BME280;25666;44.350;9.222;2022-09-25T12:14:28;101065.22;;;20.51;100.00
32324;BME280;25666;44.350;9.222;2022-09-25T12:26:04;101057.09;;;20.67;100.00
32324;BME280;25666;44.350;9.222;2022-09-25T12:36:40;101047.03;;;20.49;100.00
32324;BME280;25666;44.350;9.222;2022-09-25T12:39:18;101046.59;;;20.61;100.00
32324;BME280;25666;44.350;9.222;2022-09-25T12:41:59;101046.97;;;20.63;100.00
32324;BME280;25666;44.350;9.222;2022-09-25T12:45:11;101048.63;;;20.60;100.00
32324;BME280;25666;44.350;9.222;2022-09-25T12:48:30;101042.97;;;20.60;100.00
32324;BME280;25666;44.350;9.222;2022-09-25T12:50:35;101049.44;;;20.61;100.00
32324;BME280;25666;44.350;9.222;2022-09-25T12:53:29;101041.69;;;20.72;100.00
32324;BME280;25666;44.350;9.222;2022-09-25T12:56:02;101034.00;;;20.72;100.00
32324;BME280;25666;44.350;9.222;2022-09-25T12:58:40;101031.97;;;20.76;100.00
32324;BME280;25666;44.350;9.222;2022-09-25T13:01:18;101037.69;;;20.66;100.00
32324;BME280;25666;44.350;9.222;2022-09-25T13:04:03;101038.53;;;20.56;100.00
32324;BME280;25666;44.350;9.222;2022-09-25T13:06:51;101034.91;;;20.52;100.00
32324;BME280;25666;44.350;9.222;2022-09-25T13:09:34;101034.50;;;20.50;100.00
32324;BME280;25666;44.350;9.222;2022-09-25T13:12:23;101033.69;;;20.56;100.00
32324;BME280;25666;44.350;9.222;2022-09-25T13:14:55;101021.56;;;20.56;100.00
32324;BME280;25666;44.350;9.222;2022-09-25T13:17:22;101021.97;;;20.58;100.00
32324;BME280;25666;44.350;9.222;2022-09-25T13:19:48;101016.59;;;20.74;100.00
32324;BME280;25666;44.350;9.222;2022-09-25T13:22:22;101019.38;;;20.84;100.00
32324;BME280;25666;44.350;9.222;2022-09-25T13:24:59;101010.03;;;20.95;100.00
32324;BME280;25666;44.350;9.222;2022-09-25T13:27:38;101016.06;;;20.97;100.00
32324;BME280;25666;44.350;9.222;2022-09-25T13:30:22;101024.50;;;21.04;100.00
32324;BME280;25666;44.350;9.222;2022-09-25T13:32:54;101021.25;;;21.05;100.00
32324;BME280;25666;44.350;9.222;2022-09-25T13:35:22;101015.88;;;21.25;100.00
32324;BME280;25666;44.350;9.222;2022-09-25T13:37:54;101018.69;;;21.28;100.00
32324;BME280;25666;44.350;9.222;2022-09-25T13:40:23;101011.91;;;21.15;100.00
32324;BME280;25666;44.350;9.222;2022-09-25T13:43:20;101021.19;;;21.19;100.00
32324;BME280;25666;44.350;9.222;2022-09-25T13:45:48;101015.56;;;21.12;100.00
32324;BME280;25666;44.350;9.222;2022-09-25T13:48:34;101012.75;;;21.05;100.00
32324;BME280;25666;44.350;9.222;2022-09-25T13:51:26;101002.28;;;21.02;100.00
32324;BME280;25666;44.350;9.222;2022-09-25T13:53:57;101003.13;;;20.96;100.00
32324;BME280;25666;44.350;9.222;2022-09-25T14:01:48;101000.34;;;20.92;100.00
32324;BME280;25666;44.350;9.222;2022-09-25T14:04:18;100999.88;;;21.01;100.00
32324;BME280;25666;44.350;9.222;2022-09-25T14:06:48;100997.50;;;20.92;100.00
32324;BME280;25666;44.350;9.222;2022-09-25T14:09:21;100989.47;;;20.83;100.00
32324;BME280;25666;44.350;9.222;2022-09-25T14:12:03;100995.09;;;20.87;100.00
32324;BME280;25666;44.350;9.222;2022-09-25T14:14:34;100992.63;;;20.93;100.00
32324;BME280;25666;44.350;9.222;2022-09-25T14:17:03;100986.63;;;20.87;100.00
32324;BME280;25666;44.350;9.222;2022-09-25T14:19:33;100985.84;;;20.83;100.00
32324;BME280;25666;44.350;9.222;2022-09-25T14:22:01;100983.38;;;20.89;100.00
32324;BME280;25666;44.350;9.222;2022-09-25T14:24:29;100992.22;;;20.94;100.00
32324;BME280;25666;44.350;9.222;2022-09-25T14:26:57;100991.06;;;20.88;100.00
32324;BME280;25666;44.350;9.222;2022-09-25T14:29:31;100989.06;;;20.85;100.00
32324;BME280;25666;44.350;9.222;2022-09-25T14:35:40;100977.38;;;20.83;100.00
32324;BME280;25666;44.350;9.222;2022-09-25T14:38:29;100976.94;;;20.84;100.00
32324;BME280;25666;44.350;9.222;2022-09-25T14:44:19;100970.47;;;20.84;100.00
32324;BME280;25666;44.350;9.222;2022-09-25T14:46:52;100967.25;;;20.86;100.00